This is the latest recevied weather packets stored in our database for station/object DO1BDB-12. If no packets are shown the sender has not sent any weather packets the latest 10 day(s).
| Time | Temp. | Humidity | Pressure | Rain* | Wind** | Luminosity | Snow |
|---|---|---|---|---|---|---|---|
| 1777446418 | 23.33° C | 27% | 103.1 hPa | - | - | - | - |
| 1777446353 | 25° C | 25% | 103.1 hPa | - | - | - | - |
| 1777446287 | 22.22° C | 27% | 103.1 hPa | - | - | - | - |
| 1777446221 | 22.22° C | 28% | 103.1 hPa | - | - | - | - |
| 1777446155 | 18.33° C | 36% | 103.1 hPa | - | - | - | - |
| 1777446089 | 12.78° C | 41% | 103.1 hPa | - | - | - | - |
| 1777446023 | 14.44° C | 37% | 103.1 hPa | - | - | - | - |
| 1777445958 | 15° C | 37% | 103.1 hPa | - | - | - | - |
| 1777445892 | 13.89° C | 39% | 103.1 hPa | - | - | - | - |
| 1777445826 | 13.33° C | 39% | 103.1 hPa | - | - | - | - |
| 1777445760 | 13.33° C | 41% | 103.1 hPa | - | - | - | - |
| 1777445694 | 14.44° C | 36% | 103.1 hPa | - | - | - | - |
| 1777445628 | 19.44° C | 32% | 103.1 hPa | - | - | - | - |
| 1777445563 | 13.33° C | 39% | 103.1 hPa | - | - | - | - |
| 1777445497 | 15.56° C | 36% | 103.1 hPa | - | - | - | - |
| 1777445431 | 13.89° C | 36% | 103.1 hPa | - | - | - | - |
| 1777445365 | 23.89° C | 26% | 103.1 hPa | - | - | - | - |
| 1777445299 | 25.56° C | 26% | 103.1 hPa | - | - | - | - |
| 1777445233 | 23.89° C | 30% | 103.1 hPa | - | - | - | - |
| 1777445168 | 18.89° C | 34% | 103.1 hPa | - | - | - | - |
| 1777445102 | 20° C | 33% | 103.1 hPa | - | - | - | - |
| 1777445036 | 17.22° C | 37% | 103.1 hPa | - | - | - | - |
| 1777444970 | 18.33° C | 37% | 103.1 hPa | - | - | - | - |
| 1777444904 | 20° C | 32% | 103.1 hPa | - | - | - | - |
| 1777444838 | 16.11° C | 37% | 103.1 hPa | - | - | - | - |
* Rain since midnight (hover to see other rain measurements)
** Current wind speed in m/s (hover to see current wind gust speed)